sensor_id;sensor_type;location;lat;lon;timestamp;P1;durP1;ratioP1;P2;durP2;ratioP2
66189;SDS011;52992;52.084;5.412;2023-11-21T00:02:23;21.40;;;10.93;;
66189;SDS011;52992;52.084;5.412;2023-11-21T00:04:50;26.30;;;12.40;;
66189;SDS011;52992;52.084;5.412;2023-11-21T00:07:18;19.20;;;10.77;;
66189;SDS011;52992;52.084;5.412;2023-11-21T00:09:45;27.90;;;12.53;;
66189;SDS011;52992;52.084;5.412;2023-11-21T00:12:12;21.53;;;11.40;;
66189;SDS011;52992;52.084;5.412;2023-11-21T00:14:40;25.70;;;11.33;;
66189;SDS011;52992;52.084;5.412;2023-11-21T00:17:07;20.80;;;11.53;;
66189;SDS011;52992;52.084;5.412;2023-11-21T00:19:34;20.87;;;11.77;;
66189;SDS011;52992;52.084;5.412;2023-11-21T00:22:01;18.30;;;10.37;;
66189;SDS011;52992;52.084;5.412;2023-11-21T00:24:28;23.57;;;11.13;;
66189;SDS011;52992;52.084;5.412;2023-11-21T00:26:55;24.17;;;12.13;;
66189;SDS011;52992;52.084;5.412;2023-11-21T00:29:22;19.17;;;11.70;;
66189;SDS011;52992;52.084;5.412;2023-11-21T00:31:50;27.00;;;11.67;;
66189;SDS011;52992;52.084;5.412;2023-11-21T00:34:17;27.17;;;12.07;;
66189;SDS011;52992;52.084;5.412;2023-11-21T00:36:44;28.63;;;13.70;;
66189;SDS011;52992;52.084;5.412;2023-11-21T00:39:11;29.57;;;12.70;;
66189;SDS011;52992;52.084;5.412;2023-11-21T00:41:39;29.57;;;14.13;;
66189;SDS011;52992;52.084;5.412;2023-11-21T00:44:06;27.07;;;13.13;;
66189;SDS011;52992;52.084;5.412;2023-11-21T00:46:33;21.80;;;12.67;;
66189;SDS011;52992;52.084;5.412;2023-11-21T00:49:00;29.33;;;14.77;;
66189;SDS011;52992;52.084;5.412;2023-11-21T00:51:27;32.63;;;17.53;;
66189;SDS011;52992;52.084;5.412;2023-11-21T00:53:54;41.70;;;21.63;;
66189;SDS011;52992;52.084;5.412;2023-11-21T00:56:22;53.83;;;22.07;;
66189;SDS011;52992;52.084;5.412;2023-11-21T00:58:49;35.47;;;17.73;;
66189;SDS011;52992;52.084;5.412;2023-11-21T01:01:19;27.53;;;14.10;;
66189;SDS011;52992;52.084;5.412;2023-11-21T01:03:48;27.60;;;14.47;;
66189;SDS011;52992;52.084;5.412;2023-11-21T01:06:15;23.70;;;12.00;;
66189;SDS011;52992;52.084;5.412;2023-11-21T01:08:43;22.17;;;11.93;;
66189;SDS011;52992;52.084;5.412;2023-11-21T01:11:11;21.60;;;11.60;;
66189;SDS011;52992;52.084;5.412;2023-11-21T01:13:39;23.27;;;11.57;;
66189;SDS011;52992;52.084;5.412;2023-11-21T01:16:07;18.20;;;9.97;;
66189;SDS011;52992;52.084;5.412;2023-11-21T01:18:34;22.37;;;11.53;;
66189;SDS011;52992;52.084;5.412;2023-11-21T01:21:02;22.67;;;11.57;;
66189;SDS011;52992;52.084;5.412;2023-11-21T01:23:30;21.23;;;10.57;;
66189;SDS011;52992;52.084;5.412;2023-11-21T01:25:57;17.87;;;10.13;;
66189;SDS011;52992;52.084;5.412;2023-11-21T01:28:24;19.07;;;9.70;;
66189;SDS011;52992;52.084;5.412;2023-11-21T01:30:51;21.77;;;10.17;;
66189;SDS011;52992;52.084;5.412;2023-11-21T01:33:19;16.87;;;8.80;;
66189;SDS011;52992;52.084;5.412;2023-11-21T01:35:46;16.50;;;9.07;;
66189;SDS011;52992;52.084;5.412;2023-11-21T01:38:13;17.27;;;8.73;;
66189;SDS011;52992;52.084;5.412;2023-11-21T01:40:41;17.27;;;9.07;;
66189;SDS011;52992;52.084;5.412;2023-11-21T01:43:08;20.30;;;10.13;;
66189;SDS011;52992;52.084;5.412;2023-11-21T01:45:35;16.93;;;9.17;;
66189;SDS011;52992;52.084;5.412;2023-11-21T01:48:02;15.50;;;9.03;;
66189;SDS011;52992;52.084;5.412;2023-11-21T01:50:30;19.37;;;9.93;;
66189;SDS011;52992;52.084;5.412;2023-11-21T01:52:57;16.73;;;9.27;;
66189;SDS011;52992;52.084;5.412;2023-11-21T01:55:24;17.10;;;9.37;;
66189;SDS011;52992;52.084;5.412;2023-11-21T01:57:55;18.87;;;9.93;;
66189;SDS011;52992;52.084;5.412;2023-11-21T02:00:24;17.67;;;10.23;;
66189;SDS011;52992;52.084;5.412;2023-11-21T02:02:52;13.90;;;9.20;;
66189;SDS011;52992;52.084;5.412;2023-11-21T02:05:19;16.17;;;9.93;;
66189;SDS011;52992;52.084;5.412;2023-11-21T02:07:47;21.50;;;10.00;;
66189;SDS011;52992;52.084;5.412;2023-11-21T02:10:15;19.93;;;9.80;;
66189;SDS011;52992;52.084;5.412;2023-11-21T02:12:43;20.43;;;10.13;;
66189;SDS011;52992;52.084;5.412;2023-11-21T02:15:12;19.70;;;10.47;;
66189;SDS011;52992;52.084;5.412;2023-11-21T02:17:52;18.93;;;9.40;;
66189;SDS011;52992;52.084;5.412;2023-11-21T02:20:21;20.03;;;10.13;;
66189;SDS011;52992;52.084;5.412;2023-11-21T02:22:55;15.83;;;9.23;;
66189;SDS011;52992;52.084;5.412;2023-11-21T02:25:28;16.43;;;9.10;;
66189;SDS011;52992;52.084;5.412;2023-11-21T02:27:56;17.73;;;10.00;;
66189;SDS011;52992;52.084;5.412;2023-11-21T02:30:24;20.33;;;10.00;;
66189;SDS011;52992;52.084;5.412;2023-11-21T02:32:52;19.47;;;9.73;;
66189;SDS011;52992;52.084;5.412;2023-11-21T02:35:20;23.73;;;9.80;;
66189;SDS011;52992;52.084;5.412;2023-11-21T02:37:52;17.23;;;8.80;;
66189;SDS011;52992;52.084;5.412;2023-11-21T02:40:19;16.83;;;8.27;;
66189;SDS011;52992;52.084;5.412;2023-11-21T02:42:51;19.63;;;9.47;;
66189;SDS011;52992;52.084;5.412;2023-11-21T02:45:19;17.13;;;9.00;;
66189;SDS011;52992;52.084;5.412;2023-11-21T02:47:48;18.03;;;9.83;;
66189;SDS011;52992;52.084;5.412;2023-11-21T02:50:20;15.57;;;8.60;;
66189;SDS011;52992;52.084;5.412;2023-11-21T02:52:50;20.40;;;9.77;;
66189;SDS011;52992;52.084;5.412;2023-11-21T02:55:17;16.93;;;8.73;;
66189;SDS011;52992;52.084;5.412;2023-11-21T02:57:45;18.37;;;8.50;;
66189;SDS011;52992;52.084;5.412;2023-11-21T03:00:12;18.00;;;8.73;;
66189;SDS011;52992;52.084;5.412;2023-11-21T03:02:42;15.93;;;9.17;;
66189;SDS011;52992;52.084;5.412;2023-11-21T03:05:10;17.53;;;9.37;;
66189;SDS011;52992;52.084;5.412;2023-11-21T03:07:37;19.40;;;8.60;;
66189;SDS011;52992;52.084;5.412;2023-11-21T03:10:05;19.63;;;8.90;;
66189;SDS011;52992;52.084;5.412;2023-11-21T03:12:35;18.47;;;9.17;;
66189;SDS011;52992;52.084;5.412;2023-11-21T03:15:04;17.30;;;9.53;;
66189;SDS011;52992;52.084;5.412;2023-11-21T03:17:32;18.17;;;9.70;;
66189;SDS011;52992;52.084;5.412;2023-11-21T03:20:00;15.73;;;9.27;;
66189;SDS011;52992;52.084;5.412;2023-11-21T03:22:27;24.27;;;11.00;;
66189;SDS011;52992;52.084;5.412;2023-11-21T03:24:54;23.93;;;10.37;;
66189;SDS011;52992;52.084;5.412;2023-11-21T03:27:21;21.40;;;11.50;;
66189;SDS011;52992;52.084;5.412;2023-11-21T03:29:48;26.03;;;11.30;;
66189;SDS011;52992;52.084;5.412;2023-11-21T03:32:16;23.97;;;10.27;;
66189;SDS011;52992;52.084;5.412;2023-11-21T03:34:56;23.80;;;10.40;;
66189;SDS011;52992;52.084;5.412;2023-11-21T03:37:24;23.40;;;10.30;;
66189;SDS011;52992;52.084;5.412;2023-11-21T03:39:55;24.83;;;11.27;;
66189;SDS011;52992;52.084;5.412;2023-11-21T03:42:23;25.43;;;11.03;;
66189;SDS011;52992;52.084;5.412;2023-11-21T03:44:53;24.43;;;11.80;;
66189;SDS011;52992;52.084;5.412;2023-11-21T03:47:20;21.40;;;11.07;;
66189;SDS011;52992;52.084;5.412;2023-11-21T03:49:47;28.57;;;12.47;;
66189;SDS011;52992;52.084;5.412;2023-11-21T03:52:15;26.33;;;12.83;;
66189;SDS011;52992;52.084;5.412;2023-11-21T03:54:43;24.60;;;11.97;;
66189;SDS011;52992;52.084;5.412;2023-11-21T03:57:10;24.23;;;11.60;;
66189;SDS011;52992;52.084;5.412;2023-11-21T03:59:40;28.57;;;12.30;;
66189;SDS011;52992;52.084;5.412;2023-11-21T04:02:08;26.13;;;11.47;;
66189;SDS011;52992;52.084;5.412;2023-11-21T04:04:35;23.87;;;11.67;;
66189;SDS011;52992;52.084;5.412;2023-11-21T04:07:03;25.10;;;12.27;;
66189;SDS011;52992;52.084;5.412;2023-11-21T04:09:30;23.03;;;12.50;;
66189;SDS011;52992;52.084;5.412;2023-11-21T04:11:57;26.33;;;13.13;;
66189;SDS011;52992;52.084;5.412;2023-11-21T04:14:24;34.03;;;12.60;;
66189;SDS011;52992;52.084;5.412;2023-11-21T04:16:51;26.83;;;12.00;;
66189;SDS011;52992;52.084;5.412;2023-11-21T04:19:20;24.40;;;12.53;;
66189;SDS011;52992;52.084;5.412;2023-11-21T04:21:47;31.93;;;14.07;;
66189;SDS011;52992;52.084;5.412;2023-11-21T04:24:14;32.83;;;12.77;;
66189;SDS011;52992;52.084;5.412;2023-11-21T04:26:41;33.57;;;12.53;;
66189;SDS011;52992;52.084;5.412;2023-11-21T04:29:08;23.00;;;12.60;;
66189;SDS011;52992;52.084;5.412;2023-11-21T04:31:34;27.00;;;12.80;;
66189;SDS011;52992;52.084;5.412;2023-11-21T04:34:01;21.77;;;12.13;;
66189;SDS011;52992;52.084;5.412;2023-11-21T04:36:30;28.37;;;13.07;;
66189;SDS011;52992;52.084;5.412;2023-11-21T04:38:57;27.30;;;12.77;;
66189;SDS011;52992;52.084;5.412;2023-11-21T04:41:24;25.57;;;12.53;;
66189;SDS011;52992;52.084;5.412;2023-11-21T04:43:51;24.40;;;12.27;;
66189;SDS011;52992;52.084;5.412;2023-11-21T04:46:18;34.37;;;13.03;;
66189;SDS011;52992;52.084;5.412;2023-11-21T04:48:45;24.77;;;11.57;;
66189;SDS011;52992;52.084;5.412;2023-11-21T04:51:12;24.60;;;12.00;;
66189;SDS011;52992;52.084;5.412;2023-11-21T04:53:39;29.53;;;12.27;;
66189;SDS011;52992;52.084;5.412;2023-11-21T04:56:06;23.40;;;12.03;;
66189;SDS011;52992;52.084;5.412;2023-11-21T04:58:33;23.97;;;11.33;;
66189;SDS011;52992;52.084;5.412;2023-11-21T05:01:00;30.07;;;12.20;;
66189;SDS011;52992;52.084;5.412;2023-11-21T05:03:28;29.73;;;12.17;;
66189;SDS011;52992;52.084;5.412;2023-11-21T05:05:56;22.83;;;12.10;;
66189;SDS011;52992;52.084;5.412;2023-11-21T05:08:23;22.97;;;11.23;;
66189;SDS011;52992;52.084;5.412;2023-11-21T05:10:50;23.60;;;11.30;;
66189;SDS011;52992;52.084;5.412;2023-11-21T05:13:18;30.53;;;12.37;;
66189;SDS011;52992;52.084;5.412;2023-11-21T05:15:46;28.70;;;11.60;;
66189;SDS011;52992;52.084;5.412;2023-11-21T05:18:13;22.00;;;11.30;;
66189;SDS011;52992;52.084;5.412;2023-11-21T05:20:40;28.17;;;11.73;;
66189;SDS011;52992;52.084;5.412;2023-11-21T05:23:07;27.80;;;11.40;;
66189;SDS011;52992;52.084;5.412;2023-11-21T05:25:34;28.43;;;12.57;;
66189;SDS011;52992;52.084;5.412;2023-11-21T05:28:06;23.33;;;11.30;;
66189;SDS011;52992;52.084;5.412;2023-11-21T05:30:33;28.03;;;12.50;;
66189;SDS011;52992;52.084;5.412;2023-11-21T05:33:00;27.03;;;11.97;;
66189;SDS011;52992;52.084;5.412;2023-11-21T05:35:27;25.50;;;11.17;;
66189;SDS011;52992;52.084;5.412;2023-11-21T05:37:54;23.20;;;10.87;;
66189;SDS011;52992;52.084;5.412;2023-11-21T05:40:21;27.57;;;10.53;;
66189;SDS011;52992;52.084;5.412;2023-11-21T05:42:49;26.63;;;11.83;;
66189;SDS011;52992;52.084;5.412;2023-11-21T05:45:17;27.40;;;11.20;;
66189;SDS011;52992;52.084;5.412;2023-11-21T05:47:45;29.87;;;12.20;;
66189;SDS011;52992;52.084;5.412;2023-11-21T05:50:14;24.67;;;11.30;;
66189;SDS011;52992;52.084;5.412;2023-11-21T05:52:43;25.60;;;11.33;;
66189;SDS011;52992;52.084;5.412;2023-11-21T05:55:11;31.57;;;11.90;;
66189;SDS011;52992;52.084;5.412;2023-11-21T05:57:39;25.67;;;11.13;;
66189;SDS011;52992;52.084;5.412;2023-11-21T06:00:08;24.13;;;11.57;;
66189;SDS011;52992;52.084;5.412;2023-11-21T06:02:46;23.17;;;11.47;;
66189;SDS011;52992;52.084;5.412;2023-11-21T06:05:17;23.73;;;11.60;;
66189;SDS011;52992;52.084;5.412;2023-11-21T06:07:45;25.83;;;10.23;;
66189;SDS011;52992;52.084;5.412;2023-11-21T06:10:12;29.83;;;11.37;;
66189;SDS011;52992;52.084;5.412;2023-11-21T06:12:41;27.63;;;11.17;;
66189;SDS011;52992;52.084;5.412;2023-11-21T06:15:10;27.07;;;11.53;;
66189;SDS011;52992;52.084;5.412;2023-11-21T06:17:41;29.80;;;12.00;;
66189;SDS011;52992;52.084;5.412;2023-11-21T06:20:09;28.03;;;11.53;;
66189;SDS011;52992;52.084;5.412;2023-11-21T06:22:41;33.87;;;11.90;;
66189;SDS011;52992;52.084;5.412;2023-11-21T06:25:10;27.67;;;10.60;;
66189;SDS011;52992;52.084;5.412;2023-11-21T06:27:40;26.83;;;11.73;;
66189;SDS011;52992;52.084;5.412;2023-11-21T06:30:08;28.30;;;11.67;;
66189;SDS011;52992;52.084;5.412;2023-11-21T06:32:36;27.57;;;12.13;;
66189;SDS011;52992;52.084;5.412;2023-11-21T06:35:03;28.37;;;11.33;;
66189;SDS011;52992;52.084;5.412;2023-11-21T06:37:31;33.53;;;12.27;;
66189;SDS011;52992;52.084;5.412;2023-11-21T06:39:59;26.33;;;11.37;;
66189;SDS011;52992;52.084;5.412;2023-11-21T06:42:26;32.80;;;11.57;;
66189;SDS011;52992;52.084;5.412;2023-11-21T06:44:55;32.30;;;12.20;;
66189;SDS011;52992;52.084;5.412;2023-11-21T06:47:24;22.83;;;11.50;;
66189;SDS011;52992;52.084;5.412;2023-11-21T06:49:52;28.30;;;12.37;;
66189;SDS011;52992;52.084;5.412;2023-11-21T06:52:19;27.50;;;11.60;;
66189;SDS011;52992;52.084;5.412;2023-11-21T06:54:46;22.40;;;10.70;;
66189;SDS011;52992;52.084;5.412;2023-11-21T06:57:16;36.30;;;12.87;;
66189;SDS011;52992;52.084;5.412;2023-11-21T06:59:43;29.83;;;11.60;;
66189;SDS011;52992;52.084;5.412;2023-11-21T07:02:10;25.57;;;11.67;;
66189;SDS011;52992;52.084;5.412;2023-11-21T07:04:38;28.77;;;11.93;;
66189;SDS011;52992;52.084;5.412;2023-11-21T07:07:05;24.33;;;11.30;;
66189;SDS011;52992;52.084;5.412;2023-11-21T07:09:33;23.30;;;11.40;;
66189;SDS011;52992;52.084;5.412;2023-11-21T07:12:01;32.70;;;12.23;;
66189;SDS011;52992;52.084;5.412;2023-11-21T07:14:30;25.70;;;11.70;;
66189;SDS011;52992;52.084;5.412;2023-11-21T07:16:58;28.87;;;12.33;;
66189;SDS011;52992;52.084;5.412;2023-11-21T07:19:25;30.83;;;10.60;;
66189;SDS011;52992;52.084;5.412;2023-11-21T07:21:52;29.53;;;11.10;;
66189;SDS011;52992;52.084;5.412;2023-11-21T07:24:19;29.10;;;11.57;;
66189;SDS011;52992;52.084;5.412;2023-11-21T07:26:46;27.27;;;10.77;;
66189;SDS011;52992;52.084;5.412;2023-11-21T07:29:14;21.77;;;9.80;;
66189;SDS011;52992;52.084;5.412;2023-11-21T07:31:41;26.80;;;10.93;;
66189;SDS011;52992;52.084;5.412;2023-11-21T07:34:08;31.40;;;11.10;;
66189;SDS011;52992;52.084;5.412;2023-11-21T07:36:35;25.27;;;11.37;;
66189;SDS011;52992;52.084;5.412;2023-11-21T07:39:02;27.37;;;10.33;;
66189;SDS011;52992;52.084;5.412;2023-11-21T07:41:29;23.67;;;10.00;;
66189;SDS011;52992;52.084;5.412;2023-11-21T07:43:57;30.23;;;10.90;;
66189;SDS011;52992;52.084;5.412;2023-11-21T07:46:26;23.87;;;10.60;;
66189;SDS011;52992;52.084;5.412;2023-11-21T07:48:53;18.20;;;9.43;;
66189;SDS011;52992;52.084;5.412;2023-11-21T07:51:21;27.53;;;9.93;;
66189;SDS011;52992;52.084;5.412;2023-11-21T07:53:48;25.00;;;9.60;;
66189;SDS011;52992;52.084;5.412;2023-11-21T07:56:16;29.20;;;10.17;;
66189;SDS011;52992;52.084;5.412;2023-11-21T07:58:44;21.23;;;9.40;;
66189;SDS011;52992;52.084;5.412;2023-11-21T08:01:12;27.07;;;10.30;;
66189;SDS011;52992;52.084;5.412;2023-11-21T08:03:39;20.70;;;9.50;;
66189;SDS011;52992;52.084;5.412;2023-11-21T08:06:06;25.70;;;9.23;;
66189;SDS011;52992;52.084;5.412;2023-11-21T08:08:33;28.57;;;9.20;;
66189;SDS011;52992;52.084;5.412;2023-11-21T08:11:00;28.27;;;9.73;;
66189;SDS011;52992;52.084;5.412;2023-11-21T08:13:28;26.80;;;9.73;;
66189;SDS011;52992;52.084;5.412;2023-11-21T08:15:58;27.73;;;9.50;;
66189;SDS011;52992;52.084;5.412;2023-11-21T08:18:30;25.87;;;9.07;;
66189;SDS011;52992;52.084;5.412;2023-11-21T08:20:57;28.37;;;9.27;;
66189;SDS011;52992;52.084;5.412;2023-11-21T08:23:24;26.23;;;9.67;;
66189;SDS011;52992;52.084;5.412;2023-11-21T08:25:52;26.93;;;8.50;;
66189;SDS011;52992;52.084;5.412;2023-11-21T08:28:20;23.77;;;9.70;;
66189;SDS011;52992;52.084;5.412;2023-11-21T08:30:52;26.73;;;9.03;;
66189;SDS011;52992;52.084;5.412;2023-11-21T08:33:20;29.20;;;8.13;;
66189;SDS011;52992;52.084;5.412;2023-11-21T08:35:48;25.10;;;8.77;;
66189;SDS011;52992;52.084;5.412;2023-11-21T08:38:15;22.83;;;8.67;;
66189;SDS011;52992;52.084;5.412;2023-11-21T08:40:42;29.27;;;8.60;;
66189;SDS011;52992;52.084;5.412;2023-11-21T08:43:09;23.73;;;8.73;;
66189;SDS011;52992;52.084;5.412;2023-11-21T08:45:38;24.83;;;8.10;;
66189;SDS011;52992;52.084;5.412;2023-11-21T08:48:05;22.17;;;8.00;;
66189;SDS011;52992;52.084;5.412;2023-11-21T08:50:32;18.67;;;7.77;;
66189;SDS011;52992;52.084;5.412;2023-11-21T08:52:59;19.30;;;7.83;;
66189;SDS011;52992;52.084;5.412;2023-11-21T08:55:27;22.77;;;7.73;;
66189;SDS011;52992;52.084;5.412;2023-11-21T08:57:55;21.97;;;7.47;;
66189;SDS011;52992;52.084;5.412;2023-11-21T09:00:24;26.77;;;8.20;;
66189;SDS011;52992;52.084;5.412;2023-11-21T09:02:51;18.10;;;7.97;;
66189;SDS011;52992;52.084;5.412;2023-11-21T09:05:18;17.47;;;7.40;;
66189;SDS011;52992;52.084;5.412;2023-11-21T09:07:47;23.17;;;8.33;;
66189;SDS011;52992;52.084;5.412;2023-11-21T09:10:15;24.43;;;8.20;;
66189;SDS011;52992;52.084;5.412;2023-11-21T09:12:42;20.57;;;8.20;;
66189;SDS011;52992;52.084;5.412;2023-11-21T09:15:09;22.73;;;8.47;;
66189;SDS011;52992;52.084;5.412;2023-11-21T09:17:38;26.03;;;9.07;;
66189;SDS011;52992;52.084;5.412;2023-11-21T09:20:06;25.90;;;9.57;;
66189;SDS011;52992;52.084;5.412;2023-11-21T09:22:36;29.73;;;10.37;;
66189;SDS011;52992;52.084;5.412;2023-11-21T09:25:03;32.93;;;10.77;;
66189;SDS011;52992;52.084;5.412;2023-11-21T09:27:35;27.73;;;10.40;;
66189;SDS011;52992;52.084;5.412;2023-11-21T09:30:05;29.77;;;10.10;;
66189;SDS011;52992;52.084;5.412;2023-11-21T09:32:35;30.47;;;11.20;;
66189;SDS011;52992;52.084;5.412;2023-11-21T09:35:04;32.27;;;11.63;;
66189;SDS011;52992;52.084;5.412;2023-11-21T09:37:31;32.33;;;11.50;;
66189;SDS011;52992;52.084;5.412;2023-11-21T09:39:58;34.90;;;11.17;;
66189;SDS011;52992;52.084;5.412;2023-11-21T09:42:27;35.00;;;11.17;;
66189;SDS011;52992;52.084;5.412;2023-11-21T09:45:25;30.93;;;10.87;;
66189;SDS011;52992;52.084;5.412;2023-11-21T09:48:00;29.30;;;11.70;;
66189;SDS011;52992;52.084;5.412;2023-11-21T09:50:28;31.67;;;12.27;;
66189;SDS011;52992;52.084;5.412;2023-11-21T09:55:44;33.83;;;11.93;;
66189;SDS011;52992;52.084;5.412;2023-11-21T09:58:13;32.87;;;12.47;;
66189;SDS011;52992;52.084;5.412;2023-11-21T10:00:41;32.07;;;12.77;;
66189;SDS011;52992;52.084;5.412;2023-11-21T10:03:12;37.33;;;12.90;;
66189;SDS011;52992;52.084;5.412;2023-11-21T10:05:41;43.63;;;13.73;;
66189;SDS011;52992;52.084;5.412;2023-11-21T10:08:09;34.13;;;13.50;;
66189;SDS011;52992;52.084;5.412;2023-11-21T10:10:38;34.30;;;12.50;;
66189;SDS011;52992;52.084;5.412;2023-11-21T10:13:12;32.03;;;12.60;;
66189;SDS011;52992;52.084;5.412;2023-11-21T10:15:42;33.87;;;12.03;;
66189;SDS011;52992;52.084;5.412;2023-11-21T10:18:16;29.80;;;11.03;;
66189;SDS011;52992;52.084;5.412;2023-11-21T10:20:44;34.53;;;11.83;;
66189;SDS011;52992;52.084;5.412;2023-11-21T10:23:20;36.80;;;11.50;;
66189;SDS011;52992;52.084;5.412;2023-11-21T10:25:50;25.80;;;10.93;;
66189;SDS011;52992;52.084;5.412;2023-11-21T10:28:19;29.60;;;11.30;;
66189;SDS011;52992;52.084;5.412;2023-11-21T10:30:47;28.40;;;11.00;;
66189;SDS011;52992;52.084;5.412;2023-11-21T10:33:14;27.30;;;12.20;;
66189;SDS011;52992;52.084;5.412;2023-11-21T10:38:21;28.33;;;11.87;;
66189;SDS011;52992;52.084;5.412;2023-11-21T10:40:50;27.80;;;11.10;;
66189;SDS011;52992;52.084;5.412;2023-11-21T10:43:18;28.37;;;11.60;;
66189;SDS011;52992;52.084;5.412;2023-11-21T10:45:45;24.87;;;11.00;;
66189;SDS011;52992;52.084;5.412;2023-11-21T10:48:13;25.40;;;10.37;;
66189;SDS011;52992;52.084;5.412;2023-11-21T10:50:45;19.03;;;9.70;;
66189;SDS011;52992;52.084;5.412;2023-11-21T10:53:13;25.13;;;8.73;;
66189;SDS011;52992;52.084;5.412;2023-11-21T10:55:40;18.70;;;8.57;;
66189;SDS011;52992;52.084;5.412;2023-11-21T10:58:07;22.37;;;8.80;;
66189;SDS011;52992;52.084;5.412;2023-11-21T11:00:37;20.30;;;9.10;;
66189;SDS011;52992;52.084;5.412;2023-11-21T11:03:07;19.50;;;8.87;;
66189;SDS011;52992;52.084;5.412;2023-11-21T11:05:41;18.03;;;8.73;;
66189;SDS011;52992;52.084;5.412;2023-11-21T11:08:18;22.40;;;8.97;;
66189;SDS011;52992;52.084;5.412;2023-11-21T11:10:54;20.93;;;8.50;;
66189;SDS011;52992;52.084;5.412;2023-11-21T11:13:22;18.10;;;8.20;;
66189;SDS011;52992;52.084;5.412;2023-11-21T11:15:50;17.77;;;7.90;;
66189;SDS011;52992;52.084;5.412;2023-11-21T11:18:25;13.73;;;7.47;;
66189;SDS011;52992;52.084;5.412;2023-11-21T11:20:52;23.73;;;8.27;;
66189;SDS011;52992;52.084;5.412;2023-11-21T11:34:26;19.87;;;8.70;;
66189;SDS011;52992;52.084;5.412;2023-11-21T11:39:40;24.33;;;10.73;;
66189;SDS011;52992;52.084;5.412;2023-11-21T11:42:14;22.40;;;10.33;;
66189;SDS011;52992;52.084;5.412;2023-11-21T11:47:13;20.50;;;10.07;;
66189;SDS011;52992;52.084;5.412;2023-11-21T11:50:05;23.47;;;10.27;;
66189;SDS011;52992;52.084;5.412;2023-11-21T11:52:41;19.90;;;9.40;;
66189;SDS011;52992;52.084;5.412;2023-11-21T11:55:10;22.60;;;9.93;;
66189;SDS011;52992;52.084;5.412;2023-11-21T11:57:40;20.50;;;9.40;;
66189;SDS011;52992;52.084;5.412;2023-11-21T12:00:12;26.03;;;10.17;;
66189;SDS011;52992;52.084;5.412;2023-11-21T12:02:46;21.97;;;9.70;;
66189;SDS011;52992;52.084;5.412;2023-11-21T12:05:15;22.70;;;9.77;;
66189;SDS011;52992;52.084;5.412;2023-11-21T12:07:45;22.07;;;10.27;;
66189;SDS011;52992;52.084;5.412;2023-11-21T12:10:17;22.13;;;10.20;;
66189;SDS011;52992;52.084;5.412;2023-11-21T12:12:45;24.20;;;10.43;;
66189;SDS011;52992;52.084;5.412;2023-11-21T12:15:13;20.80;;;9.37;;
66189;SDS011;52992;52.084;5.412;2023-11-21T12:17:41;23.07;;;11.00;;
66189;SDS011;52992;52.084;5.412;2023-11-21T12:20:12;28.03;;;11.37;;
66189;SDS011;52992;52.084;5.412;2023-11-21T12:22:46;19.70;;;10.20;;
66189;SDS011;52992;52.084;5.412;2023-11-21T12:25:15;27.13;;;10.20;;
66189;SDS011;52992;52.084;5.412;2023-11-21T12:27:53;24.90;;;11.27;;
66189;SDS011;52992;52.084;5.412;2023-11-21T12:30:22;24.83;;;10.67;;
66189;SDS011;52992;52.084;5.412;2023-11-21T12:32:50;24.43;;;10.90;;
66189;SDS011;52992;52.084;5.412;2023-11-21T12:35:22;25.70;;;11.40;;
66189;SDS011;52992;52.084;5.412;2023-11-21T12:37:52;29.17;;;10.47;;
66189;SDS011;52992;52.084;5.412;2023-11-21T12:40:20;24.77;;;10.53;;
66189;SDS011;52992;52.084;5.412;2023-11-21T12:42:53;24.13;;;12.70;;
66189;SDS011;52992;52.084;5.412;2023-11-21T12:45:25;26.50;;;12.17;;
66189;SDS011;52992;52.084;5.412;2023-11-21T12:48:04;26.37;;;11.13;;
66189;SDS011;52992;52.084;5.412;2023-11-21T12:50:38;28.20;;;10.97;;
66189;SDS011;52992;52.084;5.412;2023-11-21T12:55:35;29.70;;;11.90;;
66189;SDS011;52992;52.084;5.412;2023-11-21T12:58:09;28.87;;;12.33;;
66189;SDS011;52992;52.084;5.412;2023-11-21T13:00:39;31.23;;;12.27;;
66189;SDS011;52992;52.084;5.412;2023-11-21T13:03:11;29.03;;;12.07;;
66189;SDS011;52992;52.084;5.412;2023-11-21T13:05:42;25.80;;;12.07;;
66189;SDS011;52992;52.084;5.412;2023-11-21T13:08:14;26.40;;;11.47;;
66189;SDS011;52992;52.084;5.412;2023-11-21T13:10:46;30.47;;;11.50;;
66189;SDS011;52992;52.084;5.412;2023-11-21T13:13:22;29.27;;;11.57;;
66189;SDS011;52992;52.084;5.412;2023-11-21T13:15:55;28.37;;;11.73;;
66189;SDS011;52992;52.084;5.412;2023-11-21T13:18:23;21.77;;;11.13;;
66189;SDS011;52992;52.084;5.412;2023-11-21T13:20:54;26.53;;;12.03;;
66189;SDS011;52992;52.084;5.412;2023-11-21T13:23:21;28.03;;;11.87;;
66189;SDS011;52992;52.084;5.412;2023-11-21T13:25:49;26.03;;;12.00;;
66189;SDS011;52992;52.084;5.412;2023-11-21T13:28:27;21.67;;;10.77;;
66189;SDS011;52992;52.084;5.412;2023-11-21T13:30:59;21.43;;;9.43;;
66189;SDS011;52992;52.084;5.412;2023-11-21T13:33:37;21.97;;;10.20;;
66189;SDS011;52992;52.084;5.412;2023-11-21T13:36:06;19.93;;;8.60;;
66189;SDS011;52992;52.084;5.412;2023-11-21T13:38:35;17.77;;;8.70;;
66189;SDS011;52992;52.084;5.412;2023-11-21T13:41:04;16.27;;;7.83;;
66189;SDS011;52992;52.084;5.412;2023-11-21T13:43:33;18.00;;;8.03;;
66189;SDS011;52992;52.084;5.412;2023-11-21T13:46:03;13.03;;;6.20;;
66189;SDS011;52992;52.084;5.412;2023-11-21T13:48:39;11.83;;;4.93;;
66189;SDS011;52992;52.084;5.412;2023-11-21T13:51:15;8.93;;;4.47;;
66189;SDS011;52992;52.084;5.412;2023-11-21T13:53:45;11.00;;;4.37;;
66189;SDS011;52992;52.084;5.412;2023-11-21T13:56:18;10.30;;;4.60;;
66189;SDS011;52992;52.084;5.412;2023-11-21T13:58:52;8.27;;;4.30;;
66189;SDS011;52992;52.084;5.412;2023-11-21T14:01:20;9.40;;;4.90;;
66189;SDS011;52992;52.084;5.412;2023-11-21T14:04:00;11.40;;;5.67;;
66189;SDS011;52992;52.084;5.412;2023-11-21T14:06:43;11.17;;;6.07;;
66189;SDS011;52992;52.084;5.412;2023-11-21T14:09:16;12.77;;;6.03;;
66189;SDS011;52992;52.084;5.412;2023-11-21T14:11:51;15.07;;;7.73;;
66189;SDS011;52992;52.084;5.412;2023-11-21T14:14:21;16.97;;;8.03;;
66189;SDS011;52992;52.084;5.412;2023-11-21T14:16:48;17.03;;;8.53;;
66189;SDS011;52992;52.084;5.412;2023-11-21T14:19:16;21.30;;;9.90;;
66189;SDS011;52992;52.084;5.412;2023-11-21T14:21:46;21.23;;;9.67;;
66189;SDS011;52992;52.084;5.412;2023-11-21T14:24:16;23.10;;;10.83;;
66189;SDS011;52992;52.084;5.412;2023-11-21T14:26:45;22.83;;;10.00;;
66189;SDS011;52992;52.084;5.412;2023-11-21T14:29:13;25.17;;;10.57;;
66189;SDS011;52992;52.084;5.412;2023-11-21T14:31:46;21.23;;;9.53;;
66189;SDS011;52992;52.084;5.412;2023-11-21T14:34:13;26.07;;;11.53;;
66189;SDS011;52992;52.084;5.412;2023-11-21T14:36:45;21.47;;;11.07;;
66189;SDS011;52992;52.084;5.412;2023-11-21T14:39:12;24.80;;;10.97;;
66189;SDS011;52992;52.084;5.412;2023-11-21T14:41:50;28.07;;;12.93;;
66189;SDS011;52992;52.084;5.412;2023-11-21T14:44:17;26.70;;;10.80;;
66189;SDS011;52992;52.084;5.412;2023-11-21T14:46:44;25.30;;;11.63;;
66189;SDS011;52992;52.084;5.412;2023-11-21T14:49:12;24.43;;;12.50;;
66189;SDS011;52992;52.084;5.412;2023-11-21T14:51:50;23.97;;;10.53;;
66189;SDS011;52992;52.084;5.412;2023-11-21T14:54:24;27.03;;;12.13;;
66189;SDS011;52992;52.084;5.412;2023-11-21T14:57:09;27.17;;;11.37;;
66189;SDS011;52992;52.084;5.412;2023-11-21T14:59:47;27.30;;;11.63;;
66189;SDS011;52992;52.084;5.412;2023-11-21T15:02:18;27.73;;;12.10;;